createdAt,value
2022-09-27T00:00:06.412Z,98.0
2022-09-27T00:14:06.430Z,98.0
2022-09-27T00:28:06.441Z,98.0
2022-09-27T00:42:06.404Z,98.0
2022-09-27T00:56:06.413Z,98.0
2022-09-27T01:10:06.437Z,98.0
2022-09-27T01:24:06.473Z,99.0
2022-09-27T01:38:06.436Z,99.0
2022-09-27T01:52:06.472Z,99.0
2022-09-27T02:06:06.525Z,99.0
2022-09-27T02:20:06.570Z,99.0
2022-09-27T02:34:06.592Z,99.0
2022-09-27T02:48:06.581Z,99.0
2022-09-27T03:02:09.741Z,99.0
2022-09-27T03:16:06.633Z,99.0
2022-09-27T03:30:06.708Z,99.0
2022-09-27T03:44:06.761Z,99.0
2022-09-27T03:58:06.881Z,99.0
2022-09-27T04:12:06.814Z,99.0
2022-09-27T04:26:06.827Z,99.0
2022-09-27T04:40:06.813Z,99.0
2022-09-27T04:54:06.956Z,99.0
2022-09-27T05:09:06.977Z,99.0
2022-09-27T05:24:06.997Z,99.0
2022-09-27T05:39:07.029Z,99.0
2022-09-27T05:54:07.085Z,99.0
2022-09-27T06:09:07.053Z,99.0
2022-09-27T06:24:07.116Z,99.0
2022-09-27T06:39:07.130Z,99.0
2022-09-27T06:54:07.136Z,99.0
2022-09-27T07:09:07.187Z,99.0
2022-09-27T07:24:07.208Z,99.0
2022-09-27T07:39:07.241Z,99.0
2022-09-27T07:54:08.834Z,98.0
2022-09-27T08:09:07.226Z,98.0
2022-09-27T08:24:07.415Z,98.0
2022-09-27T08:39:07.447Z,97.0
2022-09-27T08:54:07.459Z,89.0
2022-09-27T09:09:07.519Z,83.0
2022-09-27T09:24:07.545Z,71.0
2022-09-27T09:39:07.564Z,71.0
2022-09-27T09:54:07.541Z,68.0
2022-09-27T10:09:07.600Z,66.0
2022-09-27T10:24:07.556Z,72.0
2022-09-27T10:39:07.566Z,66.0
2022-09-27T10:47:47.108Z,67.0
2022-09-27T11:02:47.164Z,70.0
2022-09-27T11:17:47.277Z,68.0
2022-09-27T11:32:47.298Z,70.0
2022-09-27T11:47:47.432Z,69.0
2022-09-27T12:02:47.569Z,69.0
2022-09-27T12:17:47.733Z,76.0
2022-09-27T12:32:47.631Z,79.0
2022-09-27T12:47:47.705Z,76.0
2022-09-27T13:03:04.242Z,69.0
2022-09-27T13:17:48.000Z,67.0
2022-09-27T13:32:47.968Z,65.0
2022-09-27T13:47:47.986Z,64.0
2022-09-27T14:02:47.995Z,64.0
2022-09-27T14:17:48.055Z,65.0
2022-09-27T14:32:48.034Z,69.0
2022-09-27T14:47:48.055Z,68.0
2022-09-27T15:02:48.145Z,67.0
2022-09-27T15:17:48.071Z,68.0
2022-09-27T15:32:48.073Z,70.0
2022-09-27T15:47:48.097Z,74.0
2022-09-27T16:02:48.162Z,76.0
2022-09-27T16:17:49.102Z,79.0
2022-09-27T16:32:48.141Z,80.0
2022-09-27T16:47:48.183Z,80.0
2022-09-27T17:03:48.200Z,80.0
2022-09-27T17:18:48.208Z,84.0
2022-09-27T17:33:48.263Z,87.0
2022-09-27T17:47:48.340Z,90.0
2022-09-27T18:01:48.717Z,92.0
2022-09-27T18:15:48.515Z,94.0
2022-09-27T18:29:49.177Z,95.0
2022-09-27T18:43:48.727Z,95.0
2022-09-27T18:57:49.663Z,96.0
2022-09-27T19:11:48.504Z,96.0
2022-09-27T19:25:48.505Z,96.0
2022-09-27T19:39:52.271Z,94.0
2022-09-27T19:53:48.524Z,94.0
2022-09-27T20:07:48.537Z,96.0
2022-09-27T20:21:49.427Z,96.0
2022-09-27T20:35:48.555Z,97.0
2022-09-27T20:49:48.548Z,98.0
2022-09-27T21:03:48.602Z,98.0
2022-09-27T21:17:48.589Z,98.0
2022-09-27T21:31:48.727Z,98.0
2022-09-27T21:45:48.630Z,99.0
2022-09-27T21:59:48.652Z,99.0
2022-09-27T22:13:48.648Z,99.0
2022-09-27T22:27:48.657Z,99.0
2022-09-27T22:41:48.637Z,99.0
2022-09-27T22:55:48.644Z,99.0
2022-09-27T23:09:48.698Z,99.0
2022-09-27T23:23:48.679Z,99.0
2022-09-27T23:37:48.697Z,99.0
2022-09-27T23:51:48.694Z,99.0
